Latest Weather Observations for Adelaide (Kent Town)

IDS60801

Issued at 11:01 am CST Tuesday 22 August 2017 (issued every 30 minutes, with the page automatically refreshed every 10 minutes)

About weather observations | Map of weather stations | Latest weather observations for SA | Other Formats
Station Details ID: 023090 Name: KENT TOWN Lat: -34.92 Lon: 138.62 Height: 48.0 m
Data from the previous 72 hours. | See also: Recent months at Adelaide (Kent Town)
Date/Time
CST
Temp
°C
App
Temp
°C
Dew
Point
°C
Rel
Hum
%
Delta-T
°C
Wind Press
QNH
hPa
Press
MSL
hPa
Rain since
9am
mm
Dir  Spd
km/h
Gust
km/h
Spd
kts
Gust
kts
22/11:00am 13.7 10.6 7.3 65 3.1 W 13 20 7 11 1022.9 1022.9 0.0
22/10:30am 14.2 11.3 6.3 59 3.8 NW 11 20 6 11 1022.9 1022.9 0.0
22/10:00am 14.0 11.6 6.8 62 3.5 NNW 9 15 5 8 1022.8 1022.8 0.0
22/09:30am 13.2 11.4 7.2 67 2.9 NNW 6 9 3 5 1022.6 1022.6 0.0
22/09:00am 12.4 11.9 7.9 74 2.2 CALM 0 0 0 0 1022.7 1022.7 0.2
22/08:30am 11.7 10.9 8.0 78 1.8 NE 2 7 1 4 1022.7 1022.7 0.2
22/08:00am 11.1 10.1 8.7 85 1.2 ENE 4 7 2 4 1022.4 1022.4 0.2
22/07:30am 10.7 10.4 8.7 87 1.0 CALM 0 0 0 0 1022.1 1022.1 0.2
22/07:00am 10.5 10.2 8.7 89 0.9 CALM 0 0 0 0 1021.7 1021.7 0.2
22/06:30am 10.3 10.0 8.7 90 0.8 CALM 0 0 0 0 1021.1 1021.1 0.2
22/06:00am 10.2 9.5 8.6 90 0.8 SW 2 7 1 4 1021.0 1021.0 0.2
22/05:30am 10.3 10.0 8.7 90 0.8 CALM 0 0 0 0 1020.7 1020.7 0.2
22/05:00am 10.1 9.9 9.1 93 0.5 CALM 0 6 0 3 1020.4 1020.4 0.2
22/04:30am 10.0 9.8 9.2 95 0.4 CALM 0 0 0 0 1020.0 1020.1 0.2
22/04:00am 9.9 9.7 9.1 95 0.4 CALM 0 0 0 0 1019.7 1019.8 0.2
22/03:30am 9.9 9.7 8.9 93 0.5 CALM 0 0 0 0 1019.5 1019.6 0.2
22/03:00am 10.0 9.7 8.8 92 0.6 CALM 0 0 0 0 1019.4 1019.5 0.2
22/02:30am 10.1 9.8 8.7 91 0.7 CALM 0 0 0 0 1019.4 1019.5 0.2
22/02:00am 10.1 9.9 8.9 92 0.6 CALM 0 0 0 0 1019.5 1019.6 0.2
22/01:30am 10.2 9.9 8.6 90 0.8 CALM 0 0 0 0 1019.6 1019.7 0.2
22/01:00am 10.2 9.5 8.6 90 0.8 NNE 2 7 1 4 1019.7 1019.8 0.2
22/12:30am 10.3 9.9 8.2 87 1.0 CALM 0 0 0 0 1019.7 1019.8 0.2
22/12:00am 10.3 9.8 8.0 86 1.1 CALM 0 2 0 1 1019.6 1019.7 0.2
 
Date/Time
CST
Temp
°C
App
Temp
°C
Dew
Point
°C
Rel
Hum
%
Delta-T
°C
Wind Press
QNH
hPa
Press
MSL
hPa
Rain since
9am
mm
Dir  Spd
km/h
Gust
km/h
Spd
kts
Gust
kts
21/11:30pm 10.3 9.8 7.8 84 1.2 CALM 0 0 0 0 1019.5 1019.6 0.2
21/11:00pm 10.2 9.8 8.1 87 1.0 CALM 0 0 0 0 1019.3 1019.4 0.2
21/10:30pm 10.2 9.7 7.9 86 1.1 CALM 0 0 0 0 1019.2 1019.3 0.2
21/10:00pm 10.0 8.8 7.9 87 1.0 W 4 7 2 4 1019.2 1019.3 0.2
21/09:30pm 9.9 9.3 7.6 85 1.1 CALM 0 0 0 0 1018.7 1018.8 0.2
21/09:00pm 9.9 8.9 7.4 84 1.2 SE 2 7 1 4 1018.3 1018.4 0.2
21/08:30pm 8.9 7.5 7.2 89 0.8 WNW 4 7 2 4 1018.0 1018.1 0.2
21/08:00pm 9.2 8.6 7.3 88 0.9 CALM 0 0 0 0 1017.5 1017.6 0.2
21/07:30pm 10.3 9.7 7.4 82 1.4 CALM 0 0 0 0 1017.4 1017.5 0.2
21/07:00pm 11.2 9.2 7.0 75 2.0 S 7 11 4 6 1017.0 1017.1 0.2
21/06:30pm 11.7 8.9 7.1 73 2.2 SSW 11 17 6 9 1016.5 1016.6 0.2
21/06:00pm 12.0 9.6 7.2 72 2.3 SSW 9 17 5 9 1015.8 1015.8 0.2
21/05:30pm 12.2 9.3 6.5 68 2.7 SSW 11 17 6 9 1015.2 1015.2 0.2
21/05:00pm 12.6 8.5 6.3 65 3.0 S 17 26 9 14 1014.3 1014.3 0.2
21/04:30pm 12.6 8.8 7.5 71 2.5 SSW 17 24 9 13 1013.7 1013.7 0.2
21/04:00pm 13.0 9.9 8.8 75 2.1 SSW 15 24 8 13 1013.2 1013.2 0.2
21/03:30pm 12.6 9.3 9.5 81 1.6 SW 17 30 9 16 1012.8 1012.8 0.2
21/03:00pm 12.9 10.4 9.8 81 1.6 SW 13 22 7 12 1012.2 1012.2 0.2
21/02:30pm 12.3 9.5 10.0 86 1.2 SW 15 24 8 13 1011.9 1011.9 0.2
21/02:00pm 12.7 11.4 11.2 91 0.8 SW 9 15 5 8 1011.3 1011.3 0.2
21/01:30pm 13.2 11.6 10.1 81 1.6 SW 9 13 5 7 1010.6 1010.6 0.2
21/01:00pm 13.8 12.7 9.9 77 2.0 SW 6 11 3 6 1010.4 1010.4 0.2
21/12:30pm 13.2 12.8 9.9 80 1.7 SSW 2 7 1 4 1010.3 1010.3 0.2
21/12:00pm 12.3 11.0 9.1 81 1.6 NE 6 11 3 6 1010.4 1010.4 0.2
21/11:30am 11.7 10.4 9.1 84 1.3 NE 6 9 3 5 1010.1 1010.1 0.2
21/11:00am 11.1 9.1 8.7 85 1.2 ENE 9 15 5 8 1009.8 1009.8 0.2
21/10:30am 10.2 8.6 8.6 90 0.8 ENE 7 13 4 7 1009.9 1009.9 0.2
21/10:00am 9.6 8.1 8.6 93 0.5 E 6 11 3 6 1009.6 1009.6 0.2
21/09:30am 9.2 8.0 8.2 93 0.5 ENE 4 13 2 7 1009.6 1009.6 0.2
21/09:00am 8.9 7.2 7.6 91 0.6 NE 6 13 3 7 1009.4 1009.4 12.6
21/08:30am 8.7 6.7 7.2 90 0.7 NE 7 17 4 9 1009.2 1009.2 12.2
21/08:00am 8.5 6.0 6.6 88 0.9 NE 9 17 5 9 1008.9 1008.9 12.2
21/07:30am 8.2 5.7 6.5 89 0.8 NE 9 15 5 8 1008.7 1008.7 12.2
21/07:00am 8.6 5.9 5.7 82 1.3 NE 9 15 5 8 1008.3 1008.3 12.0
21/06:30am 8.3 5.7 6.1 86 1.0 NE 9 17 5 9 1007.9 1007.9 12.0
21/06:00am 8.0 5.4 6.0 87 0.9 NE 9 22 5 12 1007.9 1007.9 11.6
21/05:30am 8.5 4.9 5.2 80 1.5 NNE 13 26 7 14 1008.1 1008.1 10.4
21/05:00am 8.4 5.6 5.3 81 1.4 ENE 9 13 5 7 1008.0 1008.0 10.2
21/04:30am 8.8 6.0 5.0 77 1.7 NE 9 13 5 7 1008.5 1008.5 9.6
21/04:00am 9.5 6.5 4.3 70 2.3 NNE 9 15 5 8 1008.6 1008.6 8.4
21/03:30am 10.6 6.5 2.2 56 3.6 N 13 22 7 12 1008.7 1008.7 8.0
21/03:00am 11.1 7.0 0.1 46 4.5 NNE 11 20 6 11 1008.2 1008.2 7.8
21/02:30am 10.7 6.4 0.8 50 4.1 NNE 13 22 7 12 1008.4 1008.4 7.8
21/02:00am 10.3 6.1 1.5 54 3.7 NE 13 24 7 13 1009.0 1009.0 7.8
21/01:30am 10.3 6.2 2.1 57 3.5 NNE 13 26 7 14 1009.7 1009.7 7.8
21/01:00am 10.3 6.6 2.3 57 3.4 NE 11 20 6 11 1010.2 1010.2 7.8
21/12:30am 10.3 6.7 2.9 60 3.2 NNE 11 24 6 13 1010.9 1010.9 7.8
21/12:00am 10.3 6.3 2.9 60 3.2 NNE 13 22 7 12 1011.4 1011.4 7.8
 
Date/Time
CST
Temp
°C
App
Temp
°C
Dew
Point
°C
Rel
Hum
%
Delta-T
°C
Wind Press
QNH
hPa
Press
MSL
hPa
Rain since
9am
mm
Dir  Spd
km/h
Gust
km/h
Spd
kts
Gust
kts
20/11:30pm 10.0 6.4 3.1 62 3.0 NE 11 24 6 13 1012.1 1012.1 7.8
20/11:00pm 9.8 6.7 3.6 65 2.7 NE 9 17 5 9 1012.5 1012.5 7.8
20/10:30pm 9.5 6.6 4.8 72 2.1 NE 9 15 5 8 1013.0 1013.0 7.8
20/10:00pm 9.7 6.1 5.1 73 2.1 NE 13 22 7 12 1013.6 1013.6 7.8
20/09:30pm 9.3 5.4 5.3 76 1.8 NNE 15 24 8 13 1014.6 1014.6 7.8
20/09:00pm 9.7 6.3 5.8 77 1.8 NNE 13 22 7 12 1014.5 1014.5 7.8
20/08:30pm 9.0 6.3 5.5 79 1.6 NNE 9 19 5 10 1014.7 1014.7 7.6
20/08:00pm 8.8 5.0 5.7 81 1.4 NNE 15 28 8 15 1014.2 1014.2 7.6
20/07:30pm 8.6 5.1 5.5 81 1.4 NE 13 24 7 13 1014.9 1014.9 7.6
20/07:00pm 8.4 5.0 6.0 85 1.1 ENE 13 26 7 14 1014.9 1014.9 7.4
20/06:30pm 8.6 6.2 7.1 90 0.7 NE 9 15 5 8 1016.0 1016.1 6.8
20/06:00pm 9.1 7.5 7.8 92 0.6 ENE 6 11 3 6 1016.3 1016.4 3.8
20/05:30pm 9.5 7.2 7.6 88 0.9 NNW 9 17 5 9 1016.7 1016.8 2.0
20/05:00pm 10.5 8.0 6.4 76 1.9 NNW 9 15 5 8 1016.4 1016.5 0.8
20/04:30pm 12.2 8.8 4.2 58 3.6 N 11 20 6 11 1015.4 1015.4 0.0
20/04:00pm 13.1 9.4 2.4 48 4.7 NE 11 19 6 10 1015.2 1015.2 0.0
20/03:30pm 13.6 9.2 0.3 40 5.6 NE 13 26 7 14 1014.9 1014.9 0.0
20/03:00pm 13.4 9.0 0.3 40 5.5 NE 13 26 7 14 1015.5 1015.5 0.0
20/02:30pm 13.4 8.2 0.3 40 5.5 NE 17 35 9 19 1016.2 1016.3 0.0
20/02:00pm 13.7 8.5 0.4 40 5.6 NNE 17 30 9 16 1017.8 1017.9 0.0
20/01:30pm 13.5 8.0 0.4 40 5.5 NE 19 35 10 19 1017.1 1017.2 0.0
20/01:00pm 13.7 8.2 0.7 41 5.5 NE 19 35 10 19 1018.2 1018.3 0.0
20/12:30pm 13.4 7.6 0.2 40 5.5 NNE 20 44 11 24 1019.2 1019.3 0.0
20/12:00pm 13.9 8.4 0.3 39 5.7 NNE 19 35 10 19 1020.6 1020.6 0.0
20/11:30am 14.5 9.3 -0.1 37 6.1 NE 17 32 9 17 1021.4 1021.4 0.0
20/11:00am 13.4 7.7 -0.8 37 5.8 NNE 19 32 10 17 1022.3 1022.3 0.0
20/10:30am 13.8 9.3 -0.2 38 5.8 NNE 13 26 7 14 1022.1 1022.1 0.0
20/10:00am 13.7 8.8 -0.3 38 5.8 NE 15 26 8 14 1022.7 1022.7 0.0
20/09:30am 12.5 7.6 -0.2 41 5.2 NE 15 24 8 13 1023.4 1023.4 0.0
20/09:00am 11.7 8.0 0.2 45 4.7 NE 9 17 5 9 1023.9 1023.9 0.2
20/08:30am 10.9 7.2 -0.3 46 4.5 ENE 9 22 5 12 1023.9 1023.9 0.2
20/08:00am 9.8 6.0 -0.6 48 4.1 NE 9 17 5 9 1024.0 1024.0 0.2
20/07:30am 9.7 6.3 -0.4 49 4.0 NE 7 17 4 9 1024.3 1024.3 0.2
20/07:00am 9.6 5.5 -0.2 50 3.9 ENE 11 24 6 13 1024.1 1024.1 0.2
20/06:30am 9.4 5.3 -0.2 51 3.8 ENE 11 20 6 11 1024.2 1024.2 0.2
20/06:00am 9.5 5.4 -0.4 50 3.9 ENE 11 22 6 12 1024.4 1024.4 0.2
20/05:30am 9.4 5.7 -0.2 51 3.8 ENE 9 20 5 11 1024.4 1024.4 0.2
20/05:00am 9.2 5.1 -0.5 50 3.8 ENE 11 19 6 10 1024.7 1024.7 0.2
20/04:30am 9.5 5.4 -0.4 50 3.9 ENE 11 19 6 10 1025.0 1025.0 0.2
20/04:00am 9.2 5.9 0.2 53 3.6 ENE 7 15 4 8 1025.4 1025.4 0.2
20/03:30am 9.3 5.7 0.6 54 3.5 ENE 9 15 5 8 1025.3 1025.3 0.2
20/03:00am 9.5 6.3 0.9 55 3.5 ENE 7 17 4 9 1025.4 1025.4 0.2
20/02:30am 9.3 5.8 1.2 57 3.3 ENE 9 17 5 9 1025.5 1025.5 0.2
20/02:00am 9.0 5.6 2.0 61 2.9 ENE 9 15 5 8 1025.9 1025.9 0.2
20/01:30am 9.0 6.2 2.0 61 2.9 ENE 6 11 3 6 1026.1 1026.1 0.2
20/01:00am 9.2 5.8 2.0 60 3.0 ENE 9 13 5 7 1026.3 1026.3 0.2
20/12:30am 9.2 5.9 2.6 63 2.8 ENE 9 19 5 10 1026.7 1026.7 0.2
20/12:00am 7.6 5.1 3.6 76 1.7 ENE 6 11 3 6 1026.8 1026.8 0.2
 
Date/Time
CST
Temp
°C
App
Temp
°C
Dew
Point
°C
Rel
Hum
%
Delta-T
°C
Wind Press
QNH
hPa
Press
MSL
hPa
Rain since
9am
mm
Dir  Spd
km/h
Gust
km/h
Spd
kts
Gust
kts
19/11:30pm 6.6 4.9 3.8 82 1.2 NW 2 7 1 4 1027.3 1027.3 0.2
19/11:00pm 6.7 5.4 3.9 82 1.2 CALM 0 0 0 0 1027.4 1027.4 0.2
19/10:30pm 6.8 5.5 4.0 82 1.2 CALM 0 0 0 0 1027.7 1027.7 0.2
19/10:00pm 7.4 6.0 3.6 77 1.6 CALM 0 0 0 0 1027.8 1027.8 0.2
19/09:30pm 7.3 6.0 4.3 81 1.3 CALM 0 0 0 0 1027.8 1027.8 0.2
19/09:00pm 7.8 6.5 4.3 78 1.5 CALM 0 0 0 0 1028.1 1028.1 0.2
19/08:30pm 8.4 7.1 4.0 74 1.9 CALM 0 0 0 0 1028.1 1028.1 0.2
19/08:00pm 8.9 7.6 4.3 73 2.0 CALM 0 0 0 0 1028.4 1028.4 0.2
19/07:30pm 9.8 7.8 6.1 78 1.7 E 6 7 3 4 1028.3 1028.3 0.2
19/07:00pm 10.7 9.1 6.2 74 2.1 SSE 4 7 2 4 1028.4 1028.4 0.2
19/06:30pm 11.3 9.0 5.9 69 2.5 SW 7 9 4 5 1028.5 1028.5 0.2
19/06:00pm 11.8 9.1 5.5 65 2.9 SW 9 13 5 7 1028.5 1028.5 0.2
19/05:30pm 12.2 9.1 5.7 64 3.0 SW 11 17 6 9 1028.2 1028.2 0.2
19/05:00pm 12.7 9.3 5.9 63 3.2 WSW 13 20 7 11 1028.0 1028.0 0.2
19/04:30pm 13.3 9.8 5.3 58 3.7 WSW 13 19 7 10 1027.9 1027.9 0.2
19/04:00pm 13.5 10.0 5.6 59 3.7 WSW 13 22 7 12 1027.7 1027.7 0.2
19/03:30pm 14.0 10.6 5.7 57 3.9 W 13 22 7 12 1027.5 1027.5 0.2
19/03:00pm 14.4 11.7 5.7 56 4.1 W 9 20 5 11 1027.6 1027.6 0.2
19/02:30pm 14.6 11.9 3.8 48 4.9 SW 7 11 4 6 1028.0 1028.0 0.2
19/02:00pm 13.3 10.4 4.8 56 3.9 SW 9 13 5 7 1028.3 1028.3 0.2
19/01:30pm 13.9 11.7 5.1 55 4.1 SSW 6 9 3 5 1028.6 1028.6 0.2
19/01:00pm 14.1 11.0 3.7 49 4.7 SSW 9 15 5 8 1028.9 1028.9 0.2
19/12:30pm 14.6 11.5 3.8 48 4.9 SW 9 13 5 7 1029.4 1029.4 0.0
19/12:00pm 13.6 11.1 3.8 51 4.4 SE 6 13 3 7 1029.8 1029.8 0.0
19/11:30am 13.7 10.6 3.7 51 4.5 W 9 19 5 10 1030.2 1030.2 0.0

Other Formats:

Comma delimited format used in spreadsheet applications
http://www.bom.gov.au/fwo/IDS60801/IDS60801.94675.axf

JavaScript Object Notation format (JSON) in row-major order
http://www.bom.gov.au/fwo/IDS60801/IDS60801.94675.json